Terminal Aerodrome Forecast
Issued by NWS Wilmington, OH

Home | Current Version | Previous Version | Text Only | Print | Product List | Glossary On
Versions: 1 2 3 4 5 6 7 8 9 10 11 12 13 14 15 16 17 18 19 20 21 22
502
FTUS41 KILN 251125
TAFDAY
TAF
KDAY 251125Z 2512/2612 21008KT P6SM SCT030 SCT120 BKN250
     FM251600 26010KT P6SM VCTS SCT040CB BKN100 BKN250
     FM252000 29007KT P6SM VCTS SCT040CB BKN100 BKN250
     FM260100 28005KT P6SM SCT250=

USA.gov is the U.S. government's official web portal to all federal, state and local government web resources and services.